This is the latest recevied weather packets stored in our database for station/object IZ5MJO-13. If no packets are shown the sender has not sent any weather packets the latest 10 day(s).
| Time | Temp. | Humidity | Pressure | Rain* | Wind** | Luminosity | Snow |
|---|---|---|---|---|---|---|---|
| 1788138305 | 20.56° C | 63% | 1006.1 hPa | - | - | - | - |
| 1788137405 | 20.56° C | 62% | 1006.1 hPa | - | - | - | - |
| 1788136505 | 20.56° C | 60% | 1006.1 hPa | - | - | - | - |
| 1788135605 | 20.56° C | 61% | 1006.1 hPa | - | - | - | - |
| 1788134705 | 20.56° C | 64% | 1006.2 hPa | - | - | - | - |
| 1788133810 | 20.56° C | 64% | 1006.2 hPa | - | - | - | - |
| 1788132909 | 20.56° C | 65% | 1006.1 hPa | - | - | - | - |
| 1788132009 | 20.56° C | 64% | 1006.1 hPa | - | - | - | - |
| 1788131109 | 20.56° C | 60% | 1006.1 hPa | - | - | - | - |
| 1788130208 | 20.56° C | 60% | 1006.2 hPa | - | - | - | - |
| 1788129308 | 20.56° C | 60% | 1006.1 hPa | - | - | - | - |
| 1788128408 | 21.11° C | 60% | 1006.1 hPa | - | - | - | - |
| 1788127508 | 21.11° C | 56% | 1005.9 hPa | - | - | - | - |
| 1788126608 | 21.11° C | 64% | 1006 hPa | - | - | - | - |
| 1788125707 | 21.11° C | 54% | 1005.9 hPa | - | - | - | - |
| 1788125491 | 23.33° C | 50% | 1005.4 hPa | - | - | - | - |
| 1788125485 | 23.33° C | 46% | 1005.3 hPa | - | - | - | - |
| 1788125460 | 24.44° C | 44% | 1005.3 hPa | - | - | - | - |
| 1788125453 | 24.44° C | 41% | 1005.2 hPa | - | - | - | - |
| 1788125447 | 25° C | 38% | 1005 hPa | - | - | - | - |
| 1788125440 | 25.56° C | 40% | 1004.8 hPa | - | - | - | - |
| 1788124807 | 21.11° C | 57% | 1005.8 hPa | - | - | - | - |
| 1788123907 | 21.11° C | 53% | 1005.8 hPa | - | - | - | - |
| 1788123007 | 21.11° C | 56% | 1005.7 hPa | - | - | - | - |
| 1788122106 | 21.67° C | 57% | 1005.5 hPa | - | - | - | - |
* Rain since midnight (hover to see other rain measurements)
** Current wind speed in m/s (hover to see current wind gust speed)